createdAt,value
2018-11-01T00:00:59.766Z,8.00
2018-11-01T00:03:27.949Z,8.00
2018-11-01T00:05:56.150Z,8.00
2018-11-01T00:08:24.342Z,8.00
2018-11-01T00:10:52.554Z,8.00
2018-11-01T00:13:20.789Z,8.00
2018-11-01T00:15:49.044Z,8.10
2018-11-01T00:18:17.262Z,8.00
2018-11-01T00:20:45.465Z,8.00
2018-11-01T00:23:13.654Z,7.90
2018-11-01T00:25:41.859Z,8.00
2018-11-01T00:28:10.301Z,8.10
2018-11-01T00:30:38.504Z,8.10
2018-11-01T00:33:06.710Z,8.10
2018-11-01T00:35:35.178Z,8.20
2018-11-01T00:38:03.377Z,8.20
2018-11-01T00:40:31.830Z,8.10
2018-11-01T00:43:00.031Z,8.20
2018-11-01T00:45:28.226Z,8.20
2018-11-01T00:47:56.427Z,8.10
2018-11-01T00:50:24.634Z,8.10
2018-11-01T00:52:52.826Z,8.10
2018-11-01T00:55:21.022Z,8.10
2018-11-01T00:57:49.247Z,8.20
2018-11-01T01:00:17.476Z,8.30
2018-11-01T01:02:45.725Z,8.40
2018-11-01T01:05:14.006Z,8.60
2018-11-01T01:07:42.311Z,8.50
2018-11-01T01:10:12.925Z,8.50
2018-11-01T01:12:41.739Z,8.40
2018-11-01T01:15:10.190Z,8.40
2018-11-01T01:17:38.680Z,8.30
2018-11-01T01:20:09.118Z,8.30
2018-11-01T01:22:37.318Z,8.40
2018-11-01T01:25:07.360Z,8.40
2018-11-01T01:27:35.673Z,8.30
2018-11-01T01:30:03.963Z,8.30
2018-11-01T01:32:32.170Z,8.30
2018-11-01T01:35:00.363Z,8.20
2018-11-01T01:37:28.575Z,8.20
2018-11-01T01:39:56.767Z,8.20
2018-11-01T01:42:29.237Z,8.10
2018-11-01T01:44:57.484Z,8.20
2018-11-01T01:47:25.717Z,8.20
2018-11-01T01:49:53.931Z,8.20
2018-11-01T01:52:23.015Z,8.10
2018-11-01T01:54:51.503Z,8.10
2018-11-01T01:57:19.718Z,8.10
2018-11-01T01:59:47.930Z,8.00
2018-11-01T02:02:16.150Z,8.00
2018-11-01T02:04:44.375Z,8.10
2018-11-01T02:07:12.599Z,8.00
2018-11-01T02:09:40.810Z,8.00
2018-11-01T02:12:09.630Z,8.10
2018-11-01T02:14:37.834Z,8.00
2018-11-01T02:17:06.046Z,8.00
2018-11-01T02:19:34.280Z,8.10
2018-11-01T02:22:02.745Z,8.20
2018-11-01T02:24:30.988Z,8.10
2018-11-01T02:26:59.223Z,8.20
2018-11-01T02:29:27.458Z,8.40
2018-11-01T02:31:56.143Z,8.30
2018-11-01T02:34:24.371Z,8.30
2018-11-01T02:36:52.586Z,8.30
2018-11-01T02:39:20.794Z,8.20
2018-11-01T02:41:49.303Z,8.10
2018-11-01T02:44:17.522Z,8.10
2018-11-01T02:46:45.733Z,8.10
2018-11-01T02:49:13.960Z,8.10
2018-11-01T02:51:42.174Z,8.20
2018-11-01T02:54:10.419Z,8.20
2018-11-01T02:56:38.630Z,8.00
2018-11-01T02:59:06.909Z,8.00
2018-11-01T03:01:35.170Z,8.00
2018-11-01T03:04:03.400Z,8.00
2018-11-01T03:06:31.614Z,8.00
2018-11-01T03:08:59.830Z,7.90
2018-11-01T03:11:28.331Z,7.80
2018-11-01T03:13:56.536Z,7.80
2018-11-01T03:16:24.987Z,7.80
2018-11-01T03:18:53.208Z,7.80
2018-11-01T03:21:21.432Z,7.80
2018-11-01T03:23:49.940Z,7.80
2018-11-01T03:26:18.217Z,7.80
2018-11-01T03:28:46.390Z,7.90
2018-11-01T03:31:14.605Z,7.80
2018-11-01T03:33:42.831Z,7.80
2018-11-01T03:36:11.084Z,7.80
2018-11-01T03:38:39.367Z,7.90
2018-11-01T03:41:07.604Z,7.90
2018-11-01T03:43:35.859Z,7.90
2018-11-01T03:46:04.370Z,7.90
2018-11-01T03:48:32.599Z,7.80
2018-11-01T03:51:00.807Z,7.90
2018-11-01T03:53:29.105Z,8.00
2018-11-01T03:55:57.278Z,8.00
2018-11-01T03:58:25.495Z,8.00
2018-11-01T04:00:53.715Z,8.00
2018-11-01T04:03:21.918Z,8.10
2018-11-01T04:05:50.138Z,8.10
2018-11-01T04:08:18.343Z,8.00
2018-11-01T04:10:46.566Z,8.00
2018-11-01T04:13:14.782Z,8.00
2018-11-01T04:15:43.043Z,7.90
2018-11-01T04:18:11.286Z,7.90
2018-11-01T04:20:39.529Z,7.90
2018-11-01T04:23:07.771Z,7.90
2018-11-01T04:25:36.013Z,7.90
2018-11-01T04:28:04.159Z,7.80
2018-11-01T04:30:32.354Z,7.80
2018-11-01T04:33:00.646Z,7.90
2018-11-01T04:35:28.818Z,7.90
2018-11-01T04:37:57.166Z,8.00
2018-11-01T04:40:25.400Z,8.10
2018-11-01T04:42:53.528Z,8.10
2018-11-01T04:45:21.691Z,8.00
2018-11-01T04:47:49.966Z,8.10
2018-11-01T04:50:18.047Z,8.10
2018-11-01T04:52:46.227Z,8.10
2018-11-01T04:55:14.427Z,8.10
2018-11-01T04:57:42.649Z,8.00
2018-11-01T05:00:12.980Z,8.10
2018-11-01T05:02:41.634Z,8.00
2018-11-01T05:05:09.988Z,8.10
2018-11-01T05:07:38.611Z,8.10
2018-11-01T05:10:07.863Z,8.10
2018-11-01T05:12:36.234Z,8.10
2018-11-01T05:15:04.495Z,8.10
2018-11-01T05:17:32.738Z,8.10
2018-11-01T05:20:00.994Z,8.20
2018-11-01T05:22:29.335Z,8.10
2018-11-01T05:24:57.510Z,8.10
2018-11-01T05:27:25.679Z,8.00
2018-11-01T05:29:53.882Z,8.00
2018-11-01T05:32:22.383Z,8.00
2018-11-01T05:34:50.743Z,8.00
2018-11-01T05:37:19.035Z,7.90
2018-11-01T05:39:47.406Z,7.80
2018-11-01T05:42:15.706Z,7.70
2018-11-01T05:44:44.256Z,7.80
2018-11-01T05:47:12.686Z,7.80
2018-11-01T05:49:41.111Z,7.70
2018-11-01T05:52:09.366Z,7.80
2018-11-01T05:54:37.530Z,7.80
2018-11-01T05:57:05.715Z,7.70
2018-11-01T05:59:33.871Z,7.70
2018-11-01T06:02:07.458Z,7.70
2018-11-01T06:04:35.666Z,7.70
2018-11-01T06:07:04.364Z,7.60
2018-11-01T06:09:32.706Z,7.70
2018-11-01T06:12:00.991Z,7.70
2018-11-01T06:14:29.174Z,7.70
2018-11-01T06:16:57.710Z,7.70
2018-11-01T06:19:26.038Z,7.80
2018-11-01T06:21:54.326Z,7.80
2018-11-01T06:24:22.619Z,7.70
2018-11-01T06:26:50.875Z,7.70
2018-11-01T06:29:19.010Z,7.70
2018-11-01T06:31:47.210Z,7.70
2018-11-01T06:34:20.039Z,7.70
2018-11-01T06:36:48.455Z,7.80
2018-11-01T06:39:20.116Z,7.70
2018-11-01T06:41:49.534Z,7.80
2018-11-01T06:44:18.210Z,7.70
2018-11-01T06:46:46.702Z,7.80
2018-11-01T06:49:15.045Z,7.80
2018-11-01T06:51:43.229Z,7.80
2018-11-01T06:54:11.407Z,7.80
2018-11-01T06:56:39.566Z,7.80
2018-11-01T06:59:08.035Z,7.80
2018-11-01T07:01:36.183Z,7.80
2018-11-01T07:04:04.603Z,7.90
2018-11-01T07:06:32.776Z,7.80
2018-11-01T07:09:00.958Z,7.90
2018-11-01T07:11:29.147Z,7.90
2018-11-01T07:13:57.342Z,8.00
2018-11-01T07:16:25.823Z,8.00
2018-11-01T07:18:54.091Z,8.00
2018-11-01T07:21:22.531Z,8.10
2018-11-01T07:23:50.715Z,8.10
2018-11-01T07:26:19.101Z,8.10
2018-11-01T07:28:47.166Z,8.10
2018-11-01T07:31:15.349Z,8.10
2018-11-01T07:33:43.587Z,8.20
2018-11-01T07:36:11.882Z,8.20
2018-11-01T07:38:40.156Z,8.20
2018-11-01T07:41:08.323Z,8.30
2018-11-01T07:43:36.574Z,8.30
2018-11-01T07:46:04.992Z,8.40
2018-11-01T07:48:33.283Z,8.40
2018-11-01T07:51:01.491Z,8.40
2018-11-01T07:53:29.665Z,8.40
2018-11-01T07:55:57.807Z,8.50
2018-11-01T07:58:26.025Z,8.50
2018-11-01T08:00:54.153Z,8.60
2018-11-01T08:03:22.679Z,8.60
2018-11-01T08:05:50.962Z,8.60
2018-11-01T08:08:19.104Z,8.70
2018-11-01T08:10:47.296Z,8.80
2018-11-01T08:13:15.481Z,8.90
2018-11-01T08:15:43.647Z,8.90
2018-11-01T08:18:12.094Z,8.90
2018-11-01T08:20:40.470Z,9.00
2018-11-01T08:23:08.618Z,9.10
2018-11-01T08:25:36.939Z,9.20
2018-11-01T08:28:05.384Z,9.20
2018-11-01T08:30:33.540Z,9.20
2018-11-01T08:33:01.778Z,9.30
2018-11-01T08:35:30.039Z,9.40
2018-11-01T08:37:58.326Z,9.40
2018-11-01T08:40:26.588Z,9.40
2018-11-01T08:42:54.812Z,9.40
2018-11-01T08:45:22.990Z,9.40
2018-11-01T08:47:51.150Z,9.50
2018-11-01T08:50:19.319Z,9.60
2018-11-01T08:52:47.635Z,9.60
2018-11-01T08:55:15.939Z,9.60
2018-11-01T08:57:44.946Z,9.60
2018-11-01T09:00:14.127Z,9.70
2018-11-01T09:02:43.022Z,9.70
2018-11-01T09:05:12.026Z,9.80
2018-11-01T09:07:40.696Z,9.90
2018-11-01T09:10:11.990Z,9.90
2018-11-01T09:12:40.573Z,9.90
2018-11-01T09:15:10.801Z,9.90
2018-11-01T09:17:39.104Z,10.10
2018-11-01T09:20:08.027Z,10.10
2018-11-01T09:22:36.183Z,10.10
2018-11-01T09:25:04.437Z,10.10
2018-11-01T09:27:32.678Z,10.10
2018-11-01T09:30:00.963Z,10.10
2018-11-01T09:32:29.296Z,10.00
2018-11-01T09:34:58.087Z,10.00
2018-11-01T09:37:26.763Z,10.00
2018-11-01T09:39:55.592Z,10.00
2018-11-01T09:42:23.810Z,10.00
2018-11-01T09:44:51.981Z,10.10
2018-11-01T09:47:20.389Z,10.10
2018-11-01T09:49:48.311Z,10.20
2018-11-01T09:52:16.467Z,10.10
2018-11-01T09:54:44.646Z,10.20
2018-11-01T09:57:12.871Z,10.20
2018-11-01T09:59:41.116Z,10.20
2018-11-01T10:02:09.271Z,10.20
2018-11-01T10:04:37.770Z,10.30
2018-11-01T10:07:06.006Z,10.30
2018-11-01T10:09:34.130Z,10.30
2018-11-01T10:12:02.835Z,10.30
2018-11-01T10:14:31.285Z,10.30
2018-11-01T10:16:59.886Z,10.30
2018-11-01T10:19:27.876Z,10.40
2018-11-01T10:21:56.105Z,10.40
2018-11-01T10:24:24.652Z,10.50
2018-11-01T10:26:53.819Z,10.50
2018-11-01T10:29:22.329Z,10.50
2018-11-01T10:31:50.527Z,10.50
2018-11-01T10:34:19.015Z,10.60
2018-11-01T10:36:47.421Z,10.70
2018-11-01T10:39:15.923Z,10.70
2018-11-01T10:41:44.352Z,10.80
2018-11-01T10:44:12.651Z,10.80
2018-11-01T10:46:40.904Z,10.90
2018-11-01T10:49:09.287Z,11.00
2018-11-01T10:51:38.043Z,11.10
2018-11-01T10:54:06.578Z,11.10
2018-11-01T10:56:34.685Z,11.10
2018-11-01T10:59:03.078Z,11.20
2018-11-01T11:01:38.314Z,11.20
2018-11-01T11:04:07.151Z,11.30
2018-11-01T11:06:35.392Z,11.40
2018-11-01T11:09:04.955Z,11.50
2018-11-01T11:11:33.271Z,11.60
2018-11-01T11:14:01.503Z,11.60
2018-11-01T11:16:29.687Z,11.60
2018-11-01T11:18:57.847Z,11.70
2018-11-01T11:21:26.007Z,11.80
2018-11-01T11:23:54.287Z,11.90
2018-11-01T11:26:22.607Z,12.00
2018-11-01T11:28:50.943Z,12.00
2018-11-01T11:31:19.313Z,12.00
2018-11-01T11:33:47.513Z,12.10
2018-11-01T11:36:15.995Z,12.20
2018-11-01T11:38:44.175Z,12.20
2018-11-01T11:41:12.429Z,12.30
2018-11-01T11:43:40.736Z,12.40
2018-11-01T11:46:09.062Z,12.40
2018-11-01T11:48:37.295Z,12.50
2018-11-01T11:51:05.511Z,12.50
2018-11-01T11:53:33.704Z,12.50
2018-11-01T11:56:02.216Z,12.60
2018-11-01T11:58:30.659Z,12.70
2018-11-01T12:00:58.930Z,12.70
2018-11-01T12:03:27.547Z,12.80
2018-11-01T12:05:55.799Z,12.80
2018-11-01T12:08:24.187Z,12.80
2018-11-01T12:10:52.403Z,12.80
2018-11-01T12:13:21.466Z,13.00
2018-11-01T12:15:50.278Z,13.00
2018-11-01T12:18:19.015Z,13.00
2018-11-01T12:20:47.203Z,13.00
2018-11-01T12:23:15.599Z,13.00
2018-11-01T12:28:06.119Z,12.80
2018-11-01T12:30:34.346Z,12.90
2018-11-01T12:33:02.523Z,12.90
2018-11-01T12:35:30.743Z,12.90
2018-11-01T12:37:58.952Z,12.90
2018-11-01T12:40:27.307Z,13.00
2018-11-01T12:42:55.756Z,12.80
2018-11-01T12:45:24.180Z,12.70
2018-11-01T12:47:52.572Z,12.70
2018-11-01T12:50:20.890Z,12.60
2018-11-01T12:52:49.299Z,12.60
2018-11-01T12:55:17.590Z,12.80
2018-11-01T12:57:46.247Z,12.80
2018-11-01T13:00:14.418Z,12.90
2018-11-01T13:02:42.805Z,13.00
2018-11-01T13:05:10.791Z,13.00
2018-11-01T13:07:39.002Z,13.00
2018-11-01T13:10:07.223Z,13.00
2018-11-01T13:12:35.831Z,13.20
2018-11-01T13:15:04.479Z,13.20
2018-11-01T13:17:32.649Z,13.20
2018-11-01T13:20:00.815Z,13.20
2018-11-01T13:22:29.064Z,13.20
2018-11-01T13:24:57.435Z,13.20
2018-11-01T13:27:25.723Z,13.20
2018-11-01T13:29:54.186Z,13.20
2018-11-01T13:32:22.743Z,13.30
2018-11-01T13:34:51.186Z,13.40
2018-11-01T13:37:19.246Z,13.50
2018-11-01T13:39:47.512Z,13.50
2018-11-01T13:42:15.675Z,13.60
2018-11-01T13:44:43.834Z,13.70
2018-11-01T13:47:12.347Z,13.80
2018-11-01T13:49:40.435Z,13.80
2018-11-01T13:52:08.611Z,14.00
2018-11-01T13:54:37.443Z,14.60
2018-11-01T13:57:05.560Z,15.10
2018-11-01T13:59:33.727Z,15.60
2018-11-01T14:02:01.884Z,15.90
2018-11-01T14:04:30.042Z,16.00
2018-11-01T14:06:58.211Z,16.10
2018-11-01T14:09:26.371Z,16.10
2018-11-01T14:11:54.543Z,16.10
2018-11-01T14:14:23.011Z,16.00
2018-11-01T14:16:50.899Z,16.10
2018-11-01T14:19:19.055Z,16.20
2018-11-01T14:21:47.227Z,16.30
2018-11-01T14:24:15.394Z,16.50
2018-11-01T14:26:43.571Z,17.00
2018-11-01T14:29:11.776Z,17.30
2018-11-01T14:31:39.926Z,17.50
2018-11-01T14:34:08.490Z,17.70
2018-11-01T14:36:36.709Z,18.40
2018-11-01T14:39:08.403Z,18.60
2018-11-01T14:41:36.620Z,18.90
2018-11-01T14:44:05.000Z,19.30
2018-11-01T14:46:33.191Z,19.60
2018-11-01T14:49:01.384Z,19.80
2018-11-01T14:51:29.559Z,20.20
2018-11-01T14:53:58.837Z,20.80
2018-11-01T14:56:26.865Z,21.20
2018-11-01T14:58:56.206Z,21.60
2018-11-01T15:01:22.915Z,21.60
2018-11-01T15:03:51.125Z,21.70
2018-11-01T15:06:19.354Z,22.10
2018-11-01T15:08:47.501Z,22.40
2018-11-01T15:11:15.697Z,21.20
2018-11-01T15:13:43.855Z,19.90
2018-11-01T15:16:12.027Z,19.10
2018-11-01T15:39:15.763Z,16.20
2018-11-01T15:41:43.986Z,14.30
2018-11-01T15:44:12.216Z,14.10
2018-11-01T15:46:40.480Z,13.90
2018-11-01T15:49:08.722Z,13.60
2018-11-01T15:51:36.895Z,13.40
2018-11-01T15:54:05.204Z,13.20
2018-11-01T15:56:33.372Z,13.10
2018-11-01T15:59:01.548Z,12.90
2018-11-01T16:01:29.715Z,12.80
2018-11-01T16:03:57.963Z,12.70
2018-11-01T16:06:26.063Z,12.60
2018-11-01T16:08:54.268Z,12.40
2018-11-01T16:11:22.427Z,12.30
2018-11-01T16:13:50.995Z,12.20
2018-11-01T16:16:19.234Z,12.00
2018-11-01T16:18:47.416Z,11.90
2018-11-01T16:21:15.595Z,11.80
2018-11-01T16:23:44.087Z,11.70
2018-11-01T16:26:12.774Z,11.60
2018-11-01T16:28:40.947Z,11.50
2018-11-01T16:31:09.131Z,11.50
2018-11-01T16:33:37.319Z,11.40
2018-11-01T16:36:05.670Z,11.30
2018-11-01T16:38:33.866Z,11.20
2018-11-01T16:41:02.031Z,11.20
2018-11-01T16:43:30.210Z,11.10
2018-11-01T16:45:58.371Z,11.10
2018-11-01T16:48:26.610Z,11.00
2018-11-01T16:50:54.891Z,10.90
2018-11-01T16:53:23.006Z,10.70
2018-11-01T16:55:51.192Z,10.70
2018-11-01T16:58:19.395Z,10.70
2018-11-01T17:00:47.593Z,10.70
2018-11-01T17:03:15.770Z,10.60
2018-11-01T17:05:44.007Z,10.50
2018-11-01T17:08:12.193Z,10.50
2018-11-01T17:10:40.375Z,10.30
2018-11-01T17:13:08.600Z,10.30
2018-11-01T17:15:36.775Z,10.20
2018-11-01T17:18:05.025Z,10.10
2018-11-01T17:20:33.218Z,10.10
2018-11-01T17:23:01.411Z,10.00
2018-11-01T17:25:29.621Z,10.00
2018-11-01T17:27:57.831Z,10.00
2018-11-01T17:30:26.040Z,9.90
2018-11-01T17:32:55.898Z,9.80
2018-11-01T17:35:24.067Z,9.80
2018-11-01T17:37:52.250Z,9.70
2018-11-01T17:40:20.437Z,9.60
2018-11-01T17:42:48.666Z,9.60
2018-11-01T17:45:16.913Z,9.60
2018-11-01T17:47:45.107Z,9.50
2018-11-01T17:50:14.851Z,9.40
2018-11-01T17:52:43.333Z,9.40
2018-11-01T17:55:11.712Z,9.30
2018-11-01T17:57:40.455Z,9.40
2018-11-01T18:00:10.423Z,9.40
2018-11-01T18:02:38.800Z,9.30
2018-11-01T18:05:07.470Z,9.20
2018-11-01T18:07:35.647Z,9.20
2018-11-01T18:10:03.855Z,9.10
2018-11-01T18:12:32.027Z,9.10
2018-11-01T18:15:00.227Z,9.00
2018-11-01T18:17:28.419Z,9.00
2018-11-01T18:19:56.642Z,9.00
2018-11-01T18:22:24.842Z,9.00
2018-11-01T18:24:53.042Z,8.90
2018-11-01T18:27:21.439Z,8.90
2018-11-01T18:29:49.649Z,8.90
2018-11-01T18:32:17.825Z,8.80
2018-11-01T18:34:46.136Z,8.80
2018-11-01T18:37:14.288Z,8.80
2018-11-01T18:39:42.635Z,8.70
2018-11-01T18:42:10.749Z,8.70
2018-11-01T18:44:39.175Z,8.60
2018-11-01T18:47:07.401Z,8.70
2018-11-01T18:49:35.849Z,8.60
2018-11-01T18:52:04.042Z,8.50
2018-11-01T18:54:32.274Z,8.40
2018-11-01T18:57:00.464Z,8.40
2018-11-01T18:59:28.700Z,8.40
2018-11-01T19:01:56.941Z,8.30
2018-11-01T19:04:25.139Z,8.30
2018-11-01T19:06:53.416Z,8.30
2018-11-01T19:09:21.666Z,8.30
2018-11-01T19:11:49.846Z,8.20
2018-11-01T19:14:18.154Z,8.20
2018-11-01T19:16:46.423Z,8.10
2018-11-01T19:19:14.668Z,8.10
2018-11-01T19:21:42.920Z,8.20
2018-11-01T19:24:11.123Z,8.10
2018-11-01T19:26:39.345Z,8.00
2018-11-01T19:29:07.544Z,8.00
2018-11-01T19:31:35.772Z,8.10
2018-11-01T19:34:04.253Z,8.10
2018-11-01T19:36:32.360Z,8.00
2018-11-01T19:39:00.547Z,7.90
2018-11-01T19:41:28.731Z,8.00
2018-11-01T19:43:56.910Z,7.90
2018-11-01T19:46:25.167Z,7.80
2018-11-01T19:48:53.391Z,7.90
2018-11-01T19:51:21.582Z,7.80
2018-11-01T19:53:49.840Z,7.80
2018-11-01T19:56:17.995Z,7.80
2018-11-01T19:58:46.231Z,7.80
2018-11-01T20:01:14.511Z,7.80
2018-11-01T20:03:42.701Z,7.70
2018-11-01T20:06:10.958Z,7.70
2018-11-01T20:08:39.156Z,7.70
2018-11-01T20:11:07.377Z,7.60
2018-11-01T20:13:35.600Z,7.70
2018-11-01T20:16:03.783Z,7.70
2018-11-01T20:18:32.032Z,7.60
2018-11-01T20:21:00.160Z,7.60
2018-11-01T20:23:28.374Z,7.50
2018-11-01T20:25:56.699Z,7.50
2018-11-01T20:28:25.195Z,7.50
2018-11-01T20:30:53.409Z,7.40
2018-11-01T20:33:21.635Z,7.40
2018-11-01T20:35:49.812Z,7.30
2018-11-01T20:38:18.052Z,7.30
2018-11-01T20:40:46.199Z,7.30
2018-11-01T20:43:14.386Z,7.30
2018-11-01T20:45:42.612Z,7.40
2018-11-01T20:48:10.791Z,7.30
2018-11-01T20:50:39.064Z,7.20
2018-11-01T20:53:07.541Z,7.30
2018-11-01T20:55:35.755Z,7.20
2018-11-01T20:58:03.961Z,7.20
2018-11-01T21:00:32.192Z,7.20
2018-11-01T21:03:00.378Z,7.10
2018-11-01T21:05:28.572Z,7.00
2018-11-01T21:07:56.770Z,7.10
2018-11-01T21:10:24.967Z,7.10
2018-11-01T21:12:53.184Z,7.00
2018-11-01T21:15:21.403Z,7.00
2018-11-01T21:17:49.582Z,7.00
2018-11-01T21:20:17.820Z,6.90
2018-11-01T21:22:46.032Z,6.80
2018-11-01T21:25:14.354Z,6.80
2018-11-01T21:27:42.692Z,6.80
2018-11-01T21:30:11.144Z,6.70
2018-11-01T21:32:39.351Z,6.70
2018-11-01T21:35:08.001Z,6.70
2018-11-01T21:37:36.103Z,6.70
2018-11-01T21:40:05.910Z,6.70
2018-11-01T21:42:34.105Z,6.70
2018-11-01T21:45:02.298Z,6.70
2018-11-01T21:47:30.487Z,6.70
2018-11-01T21:49:58.700Z,6.60
2018-11-01T21:52:26.920Z,6.60
2018-11-01T21:54:55.126Z,6.60
2018-11-01T21:57:23.290Z,6.70
2018-11-01T21:59:51.500Z,6.70
2018-11-01T22:02:19.710Z,6.70
2018-11-01T22:04:47.948Z,6.70
2018-11-01T22:07:16.231Z,6.70
2018-11-01T22:09:44.544Z,6.70
2018-11-01T22:12:12.691Z,6.70
2018-11-01T22:14:40.897Z,6.70
2018-11-01T22:17:09.121Z,6.60
2018-11-01T22:19:37.313Z,6.60
2018-11-01T22:22:05.546Z,6.60
2018-11-01T22:24:33.728Z,6.50
2018-11-01T22:27:01.964Z,6.50
2018-11-01T22:29:30.147Z,6.50
2018-11-01T22:31:58.335Z,6.50
2018-11-01T22:34:26.519Z,6.60
2018-11-01T22:36:54.739Z,6.50
2018-11-01T22:39:22.929Z,6.60
2018-11-01T22:41:51.138Z,6.60
2018-11-01T22:44:19.339Z,6.60
2018-11-01T22:46:47.694Z,6.60
2018-11-01T22:49:16.003Z,6.70
2018-11-01T22:51:44.202Z,6.90
2018-11-01T22:54:12.391Z,6.90
2018-11-01T22:56:40.555Z,7.00
2018-11-01T22:59:08.755Z,7.00
2018-11-01T23:01:37.161Z,7.00
2018-11-01T23:04:05.618Z,6.90
2018-11-01T23:06:33.837Z,7.00
2018-11-01T23:09:02.057Z,7.10
2018-11-01T23:11:30.282Z,7.10
2018-11-01T23:13:58.459Z,7.00
2018-11-01T23:16:26.622Z,7.00
2018-11-01T23:18:54.799Z,7.10
2018-11-01T23:21:22.963Z,7.10
2018-11-01T23:23:51.167Z,7.10
2018-11-01T23:26:19.397Z,7.10
2018-11-01T23:28:47.544Z,7.00
2018-11-01T23:31:15.726Z,7.00
2018-11-01T23:33:43.910Z,7.10
2018-11-01T23:36:11.344Z,7.10
2018-11-01T23:38:45.020Z,7.20
2018-11-01T23:41:18.792Z,7.20
2018-11-01T23:43:52.333Z,7.20
2018-11-01T23:46:26.113Z,7.30
2018-11-01T23:49:04.268Z,7.40
2018-11-01T23:51:32.516Z,7.40
2018-11-01T23:54:00.781Z,7.40
2018-11-01T23:56:28.962Z,7.40
2018-11-01T23:58:57.169Z,7.40
